sensor_id;sensor_type;location;lat;lon;timestamp;pressure;altitude;pressure_sealevel;temperature;humidity
66176;BME280;52977;44.816;20.538;2023-02-14T00:00:24;101609.44;;;6.14;66.44
66176;BME280;52977;44.816;20.538;2023-02-14T00:02:51;101593.59;;;5.94;66.43
66176;BME280;52977;44.816;20.538;2023-02-14T00:05:16;101614.19;;;6.07;66.77
66176;BME280;52977;44.816;20.538;2023-02-14T00:07:42;101617.88;;;6.01;66.91
66176;BME280;52977;44.816;20.538;2023-02-14T00:10:08;101613.63;;;5.76;68.02
66176;BME280;52977;44.816;20.538;2023-02-14T00:12:34;101558.56;;;5.59;67.68
66176;BME280;52977;44.816;20.538;2023-02-14T00:14:59;101611.03;;;5.98;67.58
66176;BME280;52977;44.816;20.538;2023-02-14T00:17:44;101598.78;;;5.96;67.73
66176;BME280;52977;44.816;20.538;2023-02-14T00:20:10;101597.59;;;6.04;67.48
66176;BME280;52977;44.816;20.538;2023-02-14T00:22:37;101600.88;;;6.06;67.73
66176;BME280;52977;44.816;20.538;2023-02-14T00:25:03;101549.97;;;5.79;67.90
66176;BME280;52977;44.816;20.538;2023-02-14T00:27:29;101589.78;;;6.07;67.68
66176;BME280;52977;44.816;20.538;2023-02-14T00:29:59;101574.34;;;5.79;68.18
66176;BME280;52977;44.816;20.538;2023-02-14T00:32:28;101592.47;;;5.90;68.33
66176;BME280;52977;44.816;20.538;2023-02-14T00:34:55;101583.56;;;5.78;68.69
66176;BME280;52977;44.816;20.538;2023-02-14T00:37:21;101574.47;;;5.55;68.83
66176;BME280;52977;44.816;20.538;2023-02-14T00:39:47;101558.97;;;5.68;68.65
66176;BME280;52977;44.816;20.538;2023-02-14T00:42:13;101539.50;;;5.54;69.49
66176;BME280;52977;44.816;20.538;2023-02-14T00:44:39;101580.88;;;5.78;68.89
66176;BME280;52977;44.816;20.538;2023-02-14T00:47:05;101572.41;;;5.91;69.11
66176;BME280;52977;44.816;20.538;2023-02-14T00:49:31;101519.31;;;5.61;68.88
66176;BME280;52977;44.816;20.538;2023-02-14T00:51:57;101555.84;;;6.05;68.53
66176;BME280;52977;44.816;20.538;2023-02-14T00:54:23;101548.78;;;6.04;68.54
66176;BME280;52977;44.816;20.538;2023-02-14T00:56:49;101507.03;;;5.71;68.54
66176;BME280;52977;44.816;20.538;2023-02-14T00:59:15;101538.59;;;6.11;68.43
66176;BME280;52977;44.816;20.538;2023-02-14T01:01:41;101522.91;;;6.13;68.00
66176;BME280;52977;44.816;20.538;2023-02-14T01:04:08;101476.38;;;5.87;68.02
66176;BME280;52977;44.816;20.538;2023-02-14T01:06:34;101525.94;;;6.16;68.11
66176;BME280;52977;44.816;20.538;2023-02-14T01:09:00;101501.63;;;6.05;68.06
66176;BME280;52977;44.816;20.538;2023-02-14T01:11:26;101527.09;;;6.21;67.99
66176;BME280;52977;44.816;20.538;2023-02-14T01:13:55;101505.09;;;6.17;68.17
66176;BME280;52977;44.816;20.538;2023-02-14T01:16:24;101513.47;;;6.15;68.24
66176;BME280;52977;44.816;20.538;2023-02-14T01:18:50;101448.63;;;5.80;68.52
66176;BME280;52977;44.816;20.538;2023-02-14T01:21:23;101529.53;;;6.22;68.61
66176;BME280;52977;44.816;20.538;2023-02-14T01:23:53;101525.94;;;6.16;68.75
66176;BME280;52977;44.816;20.538;2023-02-14T01:26:20;101435.91;;;5.63;68.98
66176;BME280;52977;44.816;20.538;2023-02-14T01:28:46;101513.63;;;6.09;69.26
66176;BME280;52977;44.816;20.538;2023-02-14T01:31:15;101524.28;;;5.98;69.55
66176;BME280;52977;44.816;20.538;2023-02-14T01:33:42;101477.69;;;5.68;69.81
66176;BME280;52977;44.816;20.538;2023-02-14T01:36:26;101486.16;;;5.88;69.58
66176;BME280;52977;44.816;20.538;2023-02-14T01:38:56;101494.94;;;5.95;70.17
66176;BME280;52977;44.816;20.538;2023-02-14T01:41:25;101508.03;;;5.98;70.53
66176;BME280;52977;44.816;20.538;2023-02-14T01:43:55;101509.56;;;5.94;70.84
66176;BME280;52977;44.816;20.538;2023-02-14T01:46:23;101472.72;;;5.76;70.80
66176;BME280;52977;44.816;20.538;2023-02-14T01:48:54;101462.59;;;5.72;71.01
66176;BME280;52977;44.816;20.538;2023-02-14T01:51:24;101462.53;;;5.67;70.50
66176;BME280;52977;44.816;20.538;2023-02-14T01:53:52;101486.06;;;5.83;71.28
66176;BME280;52977;44.816;20.538;2023-02-14T01:56:25;101478.13;;;5.76;72.00
66176;BME280;52977;44.816;20.538;2023-02-14T01:58:55;101489.88;;;5.82;71.78
66176;BME280;52977;44.816;20.538;2023-02-14T02:01:23;101494.03;;;5.73;72.29
66176;BME280;52977;44.816;20.538;2023-02-14T02:03:54;101459.78;;;5.33;72.76
66176;BME280;52977;44.816;20.538;2023-02-14T02:06:31;101463.09;;;5.52;73.02
66176;BME280;52977;44.816;20.538;2023-02-14T02:11:40;101467.34;;;5.64;72.76
66176;BME280;52977;44.816;20.538;2023-02-14T02:14:12;101449.78;;;5.50;72.50
66176;BME280;52977;44.816;20.538;2023-02-14T02:33:06;101480.91;;;5.81;72.70
66176;BME280;52977;44.816;20.538;2023-02-14T02:35:52;101352.66;;;4.91;73.37
66176;BME280;52977;44.816;20.538;2023-02-14T02:39:44;101464.91;;;5.63;73.61
66176;BME280;52977;44.816;20.538;2023-02-14T02:42:15;101426.78;;;5.36;73.62
66176;BME280;52977;44.816;20.538;2023-02-14T02:47:40;101449.13;;;5.60;73.63
66176;BME280;52977;44.816;20.538;2023-02-14T02:50:21;101443.09;;;5.24;74.35
66176;BME280;52977;44.816;20.538;2023-02-14T02:58:53;101465.41;;;5.14;76.55
66176;BME280;52977;44.816;20.538;2023-02-14T03:01:23;101414.66;;;4.92;76.30
66176;BME280;52977;44.816;20.538;2023-02-14T03:04:01;101412.81;;;5.10;74.81
66176;BME280;52977;44.816;20.538;2023-02-14T03:06:47;101456.69;;;5.12;76.84
66176;BME280;52977;44.816;20.538;2023-02-14T03:12:11;101461.97;;;5.36;75.53
66176;BME280;52977;44.816;20.538;2023-02-14T03:20:23;101460.88;;;5.48;75.65
66176;BME280;52977;44.816;20.538;2023-02-14T03:25:46;101441.16;;;5.53;74.89
66176;BME280;52977;44.816;20.538;2023-02-14T03:28:21;101440.59;;;5.68;74.85
66176;BME280;52977;44.816;20.538;2023-02-14T03:31:07;101305.72;;;4.85;74.27
66176;BME280;52977;44.816;20.538;2023-02-14T03:34:03;101415.78;;;5.59;74.63
66176;BME280;52977;44.816;20.538;2023-02-14T03:36:40;101415.06;;;5.47;74.62
66176;BME280;52977;44.816;20.538;2023-02-14T03:39:27;101438.31;;;5.60;75.19
66176;BME280;52977;44.816;20.538;2023-02-14T03:42:08;101443.22;;;5.63;75.29
66176;BME280;52977;44.816;20.538;2023-02-14T03:44:36;101444.13;;;5.69;74.77
66176;BME280;52977;44.816;20.538;2023-02-14T03:47:07;101389.59;;;5.31;74.78
66176;BME280;52977;44.816;20.538;2023-02-14T03:49:37;101460.38;;;5.69;74.46
66176;BME280;52977;44.816;20.538;2023-02-14T03:52:06;101441.25;;;5.58;75.60
66176;BME280;52977;44.816;20.538;2023-02-14T03:54:34;101450.53;;;5.62;74.86
66176;BME280;52977;44.816;20.538;2023-02-14T03:57:12;101416.53;;;5.38;74.81
66176;BME280;52977;44.816;20.538;2023-02-14T03:59:41;101361.53;;;5.03;75.53
66176;BME280;52977;44.816;20.538;2023-02-14T04:02:16;101443.53;;;5.50;75.84
66176;BME280;52977;44.816;20.538;2023-02-14T04:04:47;101437.16;;;5.56;75.17
66176;BME280;52977;44.816;20.538;2023-02-14T04:07:20;101409.47;;;5.37;75.26
66176;BME280;52977;44.816;20.538;2023-02-14T04:09:46;101399.44;;;5.20;75.71
66176;BME280;52977;44.816;20.538;2023-02-14T04:12:13;101405.13;;;5.36;75.77
66176;BME280;52977;44.816;20.538;2023-02-14T04:14:40;101401.59;;;5.35;74.89
66176;BME280;52977;44.816;20.538;2023-02-14T04:17:07;101406.59;;;5.26;75.66
66176;BME280;52977;44.816;20.538;2023-02-14T04:19:51;101434.59;;;5.32;76.98
66176;BME280;52977;44.816;20.538;2023-02-14T04:22:17;101399.38;;;5.15;76.10
66176;BME280;52977;44.816;20.538;2023-02-14T04:24:44;101417.84;;;5.52;75.70
66176;BME280;52977;44.816;20.538;2023-02-14T04:27:10;101342.78;;;5.13;75.00
66176;BME280;52977;44.816;20.538;2023-02-14T04:29:41;101429.19;;;5.49;75.67
66176;BME280;52977;44.816;20.538;2023-02-14T04:32:13;101429.03;;;5.56;75.73
66176;BME280;52977;44.816;20.538;2023-02-14T04:34:40;101323.22;;;4.94;74.85
66176;BME280;52977;44.816;20.538;2023-02-14T04:37:06;101422.19;;;5.53;75.15
66176;BME280;52977;44.816;20.538;2023-02-14T04:39:33;101431.56;;;5.62;75.06
66176;BME280;52977;44.816;20.538;2023-02-14T04:42:00;101395.28;;;5.46;75.09
66176;BME280;52977;44.816;20.538;2023-02-14T04:44:26;101346.28;;;5.14;75.30
66176;BME280;52977;44.816;20.538;2023-02-14T04:46:52;101428.66;;;5.69;74.98
66176;BME280;52977;44.816;20.538;2023-02-14T04:49:19;101369.09;;;5.18;75.08
66176;BME280;52977;44.816;20.538;2023-02-14T04:51:45;101433.03;;;5.53;75.49
66176;BME280;52977;44.816;20.538;2023-02-14T04:54:11;101371.59;;;4.91;76.71
66176;BME280;52977;44.816;20.538;2023-02-14T04:56:37;101430.63;;;5.40;76.62
66176;BME280;52977;44.816;20.538;2023-02-14T04:59:03;101429.84;;;5.56;76.43
66176;BME280;52977;44.816;20.538;2023-02-14T05:01:29;101421.28;;;5.64;75.83
66176;BME280;52977;44.816;20.538;2023-02-14T05:03:54;101421.78;;;5.61;75.89
66176;BME280;52977;44.816;20.538;2023-02-14T05:06:20;101414.22;;;5.63;75.68
66176;BME280;52977;44.816;20.538;2023-02-14T05:08:46;101420.31;;;5.54;75.82
66176;BME280;52977;44.816;20.538;2023-02-14T05:11:13;101416.69;;;5.65;76.08
66176;BME280;52977;44.816;20.538;2023-02-14T05:13:39;101419.00;;;5.56;75.80
66176;BME280;52977;44.816;20.538;2023-02-14T05:16:05;101411.72;;;5.57;76.28
66176;BME280;52977;44.816;20.538;2023-02-14T05:18:31;101414.72;;;5.60;75.98
66176;BME280;52977;44.816;20.538;2023-02-14T05:20:57;101385.28;;;5.47;75.44
66176;BME280;52977;44.816;20.538;2023-02-14T05:23:23;101336.75;;;5.11;75.86
66176;BME280;52977;44.816;20.538;2023-02-14T05:25:50;101411.28;;;5.48;76.48
66176;BME280;52977;44.816;20.538;2023-02-14T05:28:17;101417.84;;;5.52;76.34
66176;BME280;52977;44.816;20.538;2023-02-14T05:30:44;101321.81;;;4.92;75.86
66176;BME280;52977;44.816;20.538;2023-02-14T05:33:11;101428.88;;;5.62;75.98
66176;BME280;52977;44.816;20.538;2023-02-14T05:35:37;101314.09;;;4.84;76.00
66176;BME280;52977;44.816;20.538;2023-02-14T05:38:03;101429.19;;;5.49;76.57
66176;BME280;52977;44.816;20.538;2023-02-14T05:40:29;101432.22;;;5.53;76.31
66176;BME280;52977;44.816;20.538;2023-02-14T05:42:55;101431.63;;;5.17;78.01
66176;BME280;52977;44.816;20.538;2023-02-14T05:45:23;101410.00;;;5.05;77.71
66176;BME280;52977;44.816;20.538;2023-02-14T05:47:49;101428.13;;;5.33;77.49
66176;BME280;52977;44.816;20.538;2023-02-14T05:50:15;101358.31;;;4.89;76.92
66176;BME280;52977;44.816;20.538;2023-02-14T05:52:41;101413.66;;;5.27;77.38
66176;BME280;52977;44.816;20.538;2023-02-14T05:55:07;101397.88;;;5.07;78.19
66176;BME280;52977;44.816;20.538;2023-02-14T05:57:33;101426.38;;;5.44;77.47
66176;BME280;52977;44.816;20.538;2023-02-14T05:59:59;101432.78;;;5.55;77.07
66176;BME280;52977;44.816;20.538;2023-02-14T06:02:25;101437.41;;;5.37;77.20
66176;BME280;52977;44.816;20.538;2023-02-14T06:04:51;101413.97;;;5.31;77.62
66176;BME280;52977;44.816;20.538;2023-02-14T06:07:17;101440.41;;;5.41;77.60
66176;BME280;52977;44.816;20.538;2023-02-14T06:09:43;101443.22;;;5.46;77.27
66176;BME280;52977;44.816;20.538;2023-02-14T06:12:08;101412.00;;;5.26;77.33
66176;BME280;52977;44.816;20.538;2023-02-14T06:14:34;101431.88;;;5.49;77.14
66176;BME280;52977;44.816;20.538;2023-02-14T06:17:00;101437.16;;;5.39;77.91
66176;BME280;52977;44.816;20.538;2023-02-14T06:19:27;101442.72;;;5.49;77.83
66176;BME280;52977;44.816;20.538;2023-02-14T06:21:54;101397.47;;;5.33;77.82
66176;BME280;52977;44.816;20.538;2023-02-14T06:24:21;101434.28;;;5.62;76.85
66176;BME280;52977;44.816;20.538;2023-02-14T06:26:47;101433.13;;;5.58;77.52
66176;BME280;52977;44.816;20.538;2023-02-14T06:29:15;101434.75;;;5.59;77.54
66176;BME280;52977;44.816;20.538;2023-02-14T06:31:40;101440.16;;;5.59;77.13
66176;BME280;52977;44.816;20.538;2023-02-14T06:34:06;101428.69;;;5.52;77.18
66176;BME280;52977;44.816;20.538;2023-02-14T06:36:32;101440.41;;;5.58;77.08
66176;BME280;52977;44.816;20.538;2023-02-14T06:38:57;101390.09;;;5.45;77.00
66176;BME280;52977;44.816;20.538;2023-02-14T06:41:23;101442.06;;;5.76;76.43
66176;BME280;52977;44.816;20.538;2023-02-14T06:43:48;101447.25;;;5.60;77.09
66176;BME280;52977;44.816;20.538;2023-02-14T06:46:15;101416.13;;;5.46;76.81
66176;BME280;52977;44.816;20.538;2023-02-14T06:48:41;101429.91;;;5.44;77.51
66176;BME280;52977;44.816;20.538;2023-02-14T06:51:07;101443.56;;;5.67;77.38
66176;BME280;52977;44.816;20.538;2023-02-14T06:53:33;101430.81;;;5.50;77.30
66176;BME280;52977;44.816;20.538;2023-02-14T06:55:59;101422.25;;;5.24;79.03
66176;BME280;52977;44.816;20.538;2023-02-14T06:58:25;101443.94;;;5.41;78.75
66176;BME280;52977;44.816;20.538;2023-02-14T07:00:53;101419.78;;;5.06;79.46
66176;BME280;52977;44.816;20.538;2023-02-14T07:03:19;101449.13;;;5.43;79.28
66176;BME280;52977;44.816;20.538;2023-02-14T07:05:45;101425.91;;;5.47;78.57
66176;BME280;52977;44.816;20.538;2023-02-14T07:08:12;101407.00;;;5.35;78.08
66176;BME280;52977;44.816;20.538;2023-02-14T07:10:38;101402.22;;;5.08;78.90
66176;BME280;52977;44.816;20.538;2023-02-14T07:13:05;101437.84;;;5.34;78.92
66176;BME280;52977;44.816;20.538;2023-02-14T07:15:32;101341.00;;;4.73;79.51
66176;BME280;52977;44.816;20.538;2023-02-14T07:17:59;101432.56;;;5.10;79.83
66176;BME280;52977;44.816;20.538;2023-02-14T07:20:25;101358.34;;;4.60;80.82
66176;BME280;52977;44.816;20.538;2023-02-14T07:22:51;101438.22;;;5.09;81.12
66176;BME280;52977;44.816;20.538;2023-02-14T07:25:18;101425.84;;;5.13;81.41
66176;BME280;52977;44.816;20.538;2023-02-14T07:27:43;101439.28;;;5.08;81.93
66176;BME280;52977;44.816;20.538;2023-02-14T07:30:10;101445.06;;;5.28;81.53
66176;BME280;52977;44.816;20.538;2023-02-14T07:32:37;101441.81;;;5.26;80.57
66176;BME280;52977;44.816;20.538;2023-02-14T07:35:04;101358.53;;;4.71;80.77
66176;BME280;52977;44.816;20.538;2023-02-14T07:37:31;101401.50;;;4.84;81.83
66176;BME280;52977;44.816;20.538;2023-02-14T07:39:58;101447.13;;;5.21;81.37
66176;BME280;52977;44.816;20.538;2023-02-14T07:42:24;101420.31;;;4.91;82.30
66176;BME280;52977;44.816;20.538;2023-02-14T07:44:50;101373.88;;;4.53;82.96
66176;BME280;52977;44.816;20.538;2023-02-14T07:47:16;101437.91;;;5.05;82.60
66176;BME280;52977;44.816;20.538;2023-02-14T07:49:42;101368.28;;;4.72;82.54
66176;BME280;52977;44.816;20.538;2023-02-14T07:52:08;101440.28;;;5.19;81.73
66176;BME280;52977;44.816;20.538;2023-02-14T07:54:35;101436.69;;;5.30;81.82
66176;BME280;52977;44.816;20.538;2023-02-14T07:57:04;101445.72;;;5.36;80.93
66176;BME280;52977;44.816;20.538;2023-02-14T07:59:30;101446.06;;;5.22;82.08
66176;BME280;52977;44.816;20.538;2023-02-14T08:01:56;101452.13;;;5.29;81.67
66176;BME280;52977;44.816;20.538;2023-02-14T08:04:25;101455.25;;;5.21;82.28
66176;BME280;52977;44.816;20.538;2023-02-14T08:06:52;101472.56;;;4.91;84.51
66176;BME280;52977;44.816;20.538;2023-02-14T08:09:19;101466.03;;;5.04;84.12
66176;BME280;52977;44.816;20.538;2023-02-14T08:11:53;101465.97;;;4.87;84.94
66176;BME280;52977;44.816;20.538;2023-02-14T08:14:39;101431.75;;;4.52;85.76
66176;BME280;52977;44.816;20.538;2023-02-14T08:17:06;101463.03;;;4.89;86.09
66176;BME280;52977;44.816;20.538;2023-02-14T08:19:33;101463.81;;;5.01;85.03
66176;BME280;52977;44.816;20.538;2023-02-14T08:22:00;101463.53;;;4.86;86.32
66176;BME280;52977;44.816;20.538;2023-02-14T08:24:26;101444.41;;;4.92;85.01
66176;BME280;52977;44.816;20.538;2023-02-14T08:26:53;101443.63;;;5.09;85.14
66176;BME280;52977;44.816;20.538;2023-02-14T08:29:19;101455.84;;;5.23;83.51
66176;BME280;52977;44.816;20.538;2023-02-14T08:31:45;101441.34;;;5.18;83.94
66176;BME280;52977;44.816;20.538;2023-02-14T08:34:12;101454.75;;;5.24;84.44
66176;BME280;52977;44.816;20.538;2023-02-14T08:36:39;101416.94;;;4.84;85.26
66176;BME280;52977;44.816;20.538;2023-02-14T08:39:05;101432.81;;;5.09;86.34
66176;BME280;52977;44.816;20.538;2023-02-14T08:41:31;101394.16;;;4.96;85.43
66176;BME280;52977;44.816;20.538;2023-02-14T08:43:58;101444.28;;;5.62;82.92
66176;BME280;52977;44.816;20.538;2023-02-14T08:46:24;101464.09;;;5.17;83.64
66176;BME280;52977;44.816;20.538;2023-02-14T08:48:51;101468.81;;;5.38;84.35
66176;BME280;52977;44.816;20.538;2023-02-14T08:51:19;101476.78;;;5.16;86.06
66176;BME280;52977;44.816;20.538;2023-02-14T08:53:45;101436.13;;;5.11;84.51
66176;BME280;52977;44.816;20.538;2023-02-14T08:56:13;101452.00;;;5.07;85.58
66176;BME280;52977;44.816;20.538;2023-02-14T08:58:39;101472.47;;;5.15;86.38
66176;BME280;52977;44.816;20.538;2023-02-14T09:01:14;101407.88;;;4.78;85.31
66176;BME280;52977;44.816;20.538;2023-02-14T09:03:42;101461.16;;;5.18;84.58
66176;BME280;52977;44.816;20.538;2023-02-14T09:06:11;101438.44;;;4.90;85.76
66176;BME280;52977;44.816;20.538;2023-02-14T09:08:39;101425.97;;;4.89;85.95
66176;BME280;52977;44.816;20.538;2023-02-14T09:11:07;101479.31;;;5.35;84.85
66176;BME280;52977;44.816;20.538;2023-02-14T09:13:33;101490.03;;;5.29;84.89
66176;BME280;52977;44.816;20.538;2023-02-14T09:16:03;101493.81;;;5.28;85.87
66176;BME280;52977;44.816;20.538;2023-02-14T09:18:29;101471.72;;;4.91;87.02
66176;BME280;52977;44.816;20.538;2023-02-14T09:20:55;101457.13;;;4.92;87.67
66176;BME280;52977;44.816;20.538;2023-02-14T09:23:23;101487.69;;;5.33;86.12
66176;BME280;52977;44.816;20.538;2023-02-14T09:25:49;101499.56;;;5.32;85.26
66176;BME280;52977;44.816;20.538;2023-02-14T09:28:15;101467.50;;;5.12;86.23
66176;BME280;52977;44.816;20.538;2023-02-14T09:30:41;101477.66;;;5.05;86.41
66176;BME280;52977;44.816;20.538;2023-02-14T09:33:07;101485.94;;;4.98;87.22
66176;BME280;52977;44.816;20.538;2023-02-14T09:35:34;101504.56;;;5.23;86.00
66176;BME280;52977;44.816;20.538;2023-02-14T09:38:01;101513.41;;;5.19;87.75
66176;BME280;52977;44.816;20.538;2023-02-14T09:40:28;101439.63;;;4.54;89.80
66176;BME280;52977;44.816;20.538;2023-02-14T09:45:35;101507.81;;;5.37;87.39
66176;BME280;52977;44.816;20.538;2023-02-14T09:48:23;101511.63;;;5.41;87.16
66176;BME280;52977;44.816;20.538;2023-02-14T09:50:53;101507.31;;;5.40;86.71
66176;BME280;52977;44.816;20.538;2023-02-14T09:53:30;101508.13;;;5.41;87.45
66176;BME280;52977;44.816;20.538;2023-02-14T09:56:09;101502.22;;;5.44;87.04
66176;BME280;52977;44.816;20.538;2023-02-14T09:59:02;101497.63;;;5.44;86.83
66176;BME280;52977;44.816;20.538;2023-02-14T10:01:55;101497.69;;;5.33;88.32
66176;BME280;52977;44.816;20.538;2023-02-14T10:04:38;101499.94;;;5.53;86.80
66176;BME280;52977;44.816;20.538;2023-02-14T10:07:24;101496.47;;;5.40;88.05
66176;BME280;52977;44.816;20.538;2023-02-14T10:12:49;101468.50;;;5.35;87.30
66176;BME280;52977;44.816;20.538;2023-02-14T10:15:23;101491.75;;;5.64;86.98
66176;BME280;52977;44.816;20.538;2023-02-14T10:25:43;101492.78;;;5.63;86.42
66176;BME280;52977;44.816;20.538;2023-02-14T10:28:13;101446.56;;;5.19;86.25
66176;BME280;52977;44.816;20.538;2023-02-14T10:30:48;101491.56;;;5.37;87.08
66176;BME280;52977;44.816;20.538;2023-02-14T10:33:18;101371.94;;;4.66;85.37
66176;BME280;52977;44.816;20.538;2023-02-14T10:41:59;101491.38;;;5.44;87.34
66176;BME280;52977;44.816;20.538;2023-02-14T10:44:39;101479.84;;;5.48;86.56
66176;BME280;52977;44.816;20.538;2023-02-14T10:58:05;101455.50;;;5.20;86.19
66176;BME280;52977;44.816;20.538;2023-02-14T11:00:35;101471.19;;;5.35;86.54
66176;BME280;52977;44.816;20.538;2023-02-14T11:03:06;101444.31;;;5.16;87.05
66176;BME280;52977;44.816;20.538;2023-02-14T11:05:37;101457.66;;;5.35;87.25
66176;BME280;52977;44.816;20.538;2023-02-14T11:08:27;101457.56;;;5.46;86.44
66176;BME280;52977;44.816;20.538;2023-02-14T11:11:47;101456.38;;;5.54;85.68
66176;BME280;52977;44.816;20.538;2023-02-14T11:13:50;101455.91;;;5.45;87.08
66176;BME280;52977;44.816;20.538;2023-02-14T11:16:34;101459.47;;;5.46;86.10
66176;BME280;52977;44.816;20.538;2023-02-14T11:21:41;101461.16;;;5.35;86.19
66176;BME280;52977;44.816;20.538;2023-02-14T11:24:29;101426.25;;;5.05;87.58
66176;BME280;52977;44.816;20.538;2023-02-14T11:27:01;101463.53;;;5.31;87.90
66176;BME280;52977;44.816;20.538;2023-02-14T11:35:17;101455.91;;;5.45;87.97
66176;BME280;52977;44.816;20.538;2023-02-14T11:37:49;101459.22;;;5.47;87.72
66176;BME280;52977;44.816;20.538;2023-02-14T11:40:38;101451.75;;;5.55;87.89
66176;BME280;52977;44.816;20.538;2023-02-14T11:45:42;101459.38;;;5.58;87.09
66176;BME280;52977;44.816;20.538;2023-02-14T11:48:26;101449.63;;;5.57;87.45
66176;BME280;52977;44.816;20.538;2023-02-14T11:50:59;101427.94;;;5.40;87.23
66176;BME280;52977;44.816;20.538;2023-02-14T11:53:33;101456.13;;;5.56;86.83
66176;BME280;52977;44.816;20.538;2023-02-14T11:56:02;101329.44;;;4.95;86.08
66176;BME280;52977;44.816;20.538;2023-02-14T12:00:59;101432.94;;;5.31;87.95
66176;BME280;52977;44.816;20.538;2023-02-14T12:03:31;101443.28;;;5.51;87.41
66176;BME280;52977;44.816;20.538;2023-02-14T12:06:00;101416.53;;;5.38;87.92
66176;BME280;52977;44.816;20.538;2023-02-14T12:08:30;101438.22;;;5.55;88.19
66176;BME280;52977;44.816;20.538;2023-02-14T12:11:02;101433.13;;;5.58;88.33
66176;BME280;52977;44.816;20.538;2023-02-14T12:13:28;101421.63;;;5.51;89.45
66176;BME280;52977;44.816;20.538;2023-02-14T12:15:56;101425.25;;;5.57;88.79
66176;BME280;52977;44.816;20.538;2023-02-14T12:21:09;101430.91;;;5.72;87.60
66176;BME280;52977;44.816;20.538;2023-02-14T12:24:05;101418.56;;;5.81;87.54
66176;BME280;52977;44.816;20.538;2023-02-14T12:26:43;101374.09;;;5.60;87.26
66176;BME280;52977;44.816;20.538;2023-02-14T12:29:23;101412.97;;;5.88;86.46
66176;BME280;52977;44.816;20.538;2023-02-14T12:31:52;101408.06;;;5.85;86.72
66176;BME280;52977;44.816;20.538;2023-02-14T12:34:19;101344.16;;;5.50;87.41
66176;BME280;52977;44.816;20.538;2023-02-14T12:39:27;101410.19;;;5.83;87.76
66176;BME280;52977;44.816;20.538;2023-02-14T12:42:10;101409.13;;;5.84;88.29
66176;BME280;52977;44.816;20.538;2023-02-14T12:50:53;101397.31;;;5.73;89.54
66176;BME280;52977;44.816;20.538;2023-02-14T12:53:34;101402.25;;;5.76;89.55
66176;BME280;52977;44.816;20.538;2023-02-14T13:04:43;101394.50;;;5.85;87.29
66176;BME280;52977;44.816;20.538;2023-02-14T13:07:34;101341.50;;;5.55;88.21
66176;BME280;52977;44.816;20.538;2023-02-14T13:20:38;101312.91;;;5.08;89.60
66176;BME280;52977;44.816;20.538;2023-02-14T13:23:15;101359.09;;;5.53;89.57
66176;BME280;52977;44.816;20.538;2023-02-14T13:25:50;101398.69;;;5.76;89.35
66176;BME280;52977;44.816;20.538;2023-02-14T13:28:19;101355.22;;;5.65;88.40
66176;BME280;52977;44.816;20.538;2023-02-14T13:30:46;101315.66;;;5.47;88.08
66176;BME280;52977;44.816;20.538;2023-02-14T13:35:54;101383.00;;;5.95;87.37
66176;BME280;52977;44.816;20.538;2023-02-14T13:38:21;101342.31;;;5.73;87.22
66176;BME280;52977;44.816;20.538;2023-02-14T13:40:49;101343.69;;;5.75;86.76
66176;BME280;52977;44.816;20.538;2023-02-14T13:49:25;101381.53;;;6.04;85.36
66176;BME280;52977;44.816;20.538;2023-02-14T13:51:58;101385.94;;;6.10;85.05
66176;BME280;52977;44.816;20.538;2023-02-14T13:54:35;101372.16;;;5.95;86.01
66176;BME280;52977;44.816;20.538;2023-02-14T13:57:35;101381.72;;;5.97;86.10
66176;BME280;52977;44.816;20.538;2023-02-14T14:00:36;101345.66;;;5.80;86.61
66176;BME280;52977;44.816;20.538;2023-02-14T14:03:04;101353.84;;;5.85;87.24
66176;BME280;52977;44.816;20.538;2023-02-14T14:10:58;101374.78;;;6.07;86.29
66176;BME280;52977;44.816;20.538;2023-02-14T14:19:03;101376.94;;;6.05;86.43
66176;BME280;52977;44.816;20.538;2023-02-14T14:21:59;101366.84;;;6.00;86.36
66176;BME280;52977;44.816;20.538;2023-02-14T14:24:30;101356.69;;;5.95;86.23
66176;BME280;52977;44.816;20.538;2023-02-14T14:27:00;101374.97;;;6.00;86.83
66176;BME280;52977;44.816;20.538;2023-02-14T14:35:00;101387.19;;;6.03;87.23
66176;BME280;52977;44.816;20.538;2023-02-14T14:37:31;101316.13;;;5.61;87.35
66176;BME280;52977;44.816;20.538;2023-02-14T14:39:59;101378.88;;;5.92;87.71
66176;BME280;52977;44.816;20.538;2023-02-14T14:42:29;101352.59;;;5.71;87.96
66176;BME280;52977;44.816;20.538;2023-02-14T14:45:00;101383.34;;;5.81;88.52
66176;BME280;52977;44.816;20.538;2023-02-14T14:47:30;101387.81;;;5.71;89.86
66176;BME280;52977;44.816;20.538;2023-02-14T14:50:05;101378.84;;;5.70;90.06
66176;BME280;52977;44.816;20.538;2023-02-14T14:52:38;101301.97;;;5.20;90.02
66176;BME280;52977;44.816;20.538;2023-02-14T14:55:07;101382.13;;;5.72;90.61
66176;BME280;52977;44.816;20.538;2023-02-14T14:57:38;101381.88;;;5.74;90.69
66176;BME280;52977;44.816;20.538;2023-02-14T15:02:57;101370.72;;;5.70;89.97
66176;BME280;52977;44.816;20.538;2023-02-14T15:05:29;101384.84;;;5.72;90.47
66176;BME280;52977;44.816;20.538;2023-02-14T15:08:11;101381.72;;;5.80;89.97
66176;BME280;52977;44.816;20.538;2023-02-14T15:10:38;101378.59;;;5.72;90.46
66176;BME280;52977;44.816;20.538;2023-02-14T15:13:07;101380.13;;;5.85;90.01
66176;BME280;52977;44.816;20.538;2023-02-14T15:15:54;101342.16;;;5.62;89.39
66176;BME280;52977;44.816;20.538;2023-02-14T15:18:20;101348.91;;;5.60;89.64
66176;BME280;52977;44.816;20.538;2023-02-14T15:20:48;101294.84;;;5.31;89.44
66176;BME280;52977;44.816;20.538;2023-02-14T15:23:20;101388.09;;;5.91;89.32
66176;BME280;52977;44.816;20.538;2023-02-14T15:25:47;101387.28;;;5.91;89.21
66176;BME280;52977;44.816;20.538;2023-02-14T15:28:29;101376.03;;;5.82;89.43